Terminal Aerodrome Forecast
Issued by NWS

Home | Current Version | Previous Version | Graphics & Text | Print | Product List | Glossary On
Versions: 1 2 3 4 5 6 7 8 9 10 11 12 13 14 15 16
000
FTUS43 KMPX 051739
TAFRWF
TAF
KRWF 051739Z 0518/0618 20008KT P6SM SKC
     FM060000 17010KT P6SM SCT150
     FM060600 21008KT P6SM BKN100
     FM061200 26009KT P6SM SCT100
     FM061600 29011KT P6SM FEW060 SCT120=

USA.gov is the U.S. government's official web portal to all federal, state and local government web resources and services.